Time;durP1;ratioP1;P1;durP2;ratioP2;P2;SDS_P1;SDS_P2;PMS_P1;PMS_P2;Temp;Humidity;BMP_temperature;BMP_pressure;BME280_temperature;BME280_humidity;BME280_pressure;Samples;Min_cycle;Max_cycle;Signal;HPM_P1;HPM_P2
2022/11/20 00:00:26;;;;;;;36.67;18.97;;;;;;;2.20;79.41;100861.78;122736;1105;104319;-77
2022/11/20 00:03:17;;;;;;;40.90;19.20;;;;;;;2.21;79.48;100842.88;122715;1105;104803;-78
2022/11/20 00:05:49;;;;;;;35.87;18.53;;;;;;;2.22;79.03;100857.64;122684;1104;104495;-77
2022/11/20 00:08:20;;;;;;;39.50;20.63;;;;;;;2.23;79.50;100859.41;122711;1104;104299;-77
2022/11/20 00:10:51;;;;;;;41.10;20.23;;;;;;;2.19;79.23;100842.77;122705;1105;104262;-78
2022/11/20 00:13:22;;;;;;;33.53;17.87;;;;;;;2.14;80.15;100826.88;122736;1105;104262;-78
2022/11/20 00:16:01;;;;;;;39.27;19.43;;;;;;;2.07;79.75;100809.11;122726;1105;104328;-77
2022/11/20 00:18:33;;;;;;;39.23;20.13;;;;;;;2.03;79.79;100822.60;122679;1105;104239;-78
2022/11/20 00:21:06;;;;;;;36.30;20.00;;;;;;;2.03;79.74;100819.13;122739;1105;104261;-78
2022/11/20 00:23:37;;;;;;;35.93;19.13;;;;;;;2.04;79.70;100828.67;122810;1105;104211;-78
2022/11/20 00:26:11;;;;;;;37.37;19.17;;;;;;;1.97;79.70;100835.08;122807;1105;104402;-78
2022/11/20 00:28:50;;;;;;;33.00;18.33;;;;;;;1.92;79.49;100833.84;122700;1105;104402;-77
2022/11/20 00:31:21;;;;;;;37.57;20.80;;;;;;;1.87;79.55;100856.78;122640;1105;104367;-77
2022/11/20 00:33:53;;;;;;;35.10;20.00;;;;;;;1.86;80.21;100873.09;122859;1105;104270;-78
2022/11/20 00:36:25;;;;;;;37.97;19.60;;;;;;;1.84;80.36;100859.14;122665;1105;104243;-76
2022/11/20 00:38:58;;;;;;;39.77;20.53;;;;;;;1.78;80.05;100844.03;122651;1105;104367;-77
2022/11/20 00:41:31;;;;;;;33.53;19.00;;;;;;;1.77;80.77;100837.05;122711;1105;104421;-78
2022/11/20 00:44:03;;;;;;;37.45;20.35;;;;;;;1.73;80.46;100826.34;122600;1105;104370;-77
2022/11/20 00:46:34;;;;;;;37.37;20.33;;;;;;;1.72;80.20;100842.67;122691;1105;104380;-77
2022/11/20 00:49:05;;;;;;;37.20;20.20;;;;;;;1.71;80.22;100852.10;122731;1105;104323;-78
2022/11/20 00:51:36;;;;;;;35.83;18.83;;;;;;;1.71;80.52;100854.69;122806;1105;104270;-78
2022/11/20 00:54:11;;;;;;;37.93;19.47;;;;;;;1.68;80.45;100857.04;122792;1105;104296;-77
2022/11/20 00:56:41;;;;;;;;;;;;;;;1.67;81.03;100875.95;122840;1105;104323;-77
2022/11/20 00:59:12;;;;;;;37.30;19.20;;;;;;;1.66;80.67;100881.91;122886;1105;104217;-78
2022/11/20 01:01:45;;;;;;;36.90;19.92;;;;;;;1.66;80.49;100860.31;122910;1105;104235;-77
2022/11/20 01:04:17;;;;;;;36.83;19.43;;;;;;;1.69;80.21;100860.55;122824;1105;104271;-77
2022/11/20 01:06:48;;;;;;;37.83;20.07;;;;;;;1.68;80.59;100854.45;122851;1105;104367;-77
2022/11/20 01:09:19;;;;;;;33.60;17.80;;;;;;;1.69;81.04;100853.68;122720;1105;104332;-76
2022/11/20 01:11:50;;;;;;;38.30;20.00;;;;;;;1.66;80.21;100847.37;122789;1105;104377;-77
2022/11/20 01:14:22;;;;;;;36.03;19.23;;;;;;;1.64;81.13;100836.91;122760;1105;104371;-77
2022/11/20 01:16:54;;;;;;;36.90;20.03;;;;;;;1.61;80.88;100845.33;122819;1105;104408;-77
2022/11/20 01:19:25;;;;;;;41.90;21.40;;;;;;;1.61;80.75;100839.27;122680;1105;104380;-77
2022/11/20 01:21:57;;;;;;;38.40;19.73;;;;;;;1.57;81.71;100834.63;122727;1105;104847;-78
2022/11/20 01:24:28;;;;;;;38.40;20.50;;;;;;;1.50;81.34;100842.72;122857;1105;104323;-77
2022/11/20 01:27:00;;;;;;;36.27;18.40;;;;;;;1.46;81.62;100819.98;122627;1105;104264;-77
2022/11/20 01:29:31;;;;;;;38.75;20.00;;;;;;;1.40;82.34;100790.28;122694;1105;104398;-77
2022/11/20 01:32:02;;;;;;;39.27;21.07;;;;;;;1.36;81.42;100802.86;122713;1105;104336;-76
2022/11/20 01:34:33;;;;;;;39.83;21.10;;;;;;;1.34;81.90;100805.33;122721;1105;104271;-77
2022/11/20 01:37:04;;;;;;;35.00;18.33;;;;;;;1.32;82.18;100813.73;122683;1105;104315;-77
2022/11/20 01:39:35;;;;;;;38.27;19.83;;;;;;;1.29;82.22;100814.39;122678;1105;104428;-77
2022/11/20 01:45:00;;;;;;;34.87;18.37;;;;;;;1.22;83.21;100831.12;122826;1105;104339;-79
2022/11/20 01:47:36;;;;;;;39.10;19.97;;;;;;;1.19;83.25;100820.53;122649;1105;104402;-77
2022/11/20 01:50:15;;;;;;;38.93;21.07;;;;;;;1.17;83.04;100818.59;122628;1105;104399;-77
2022/11/20 01:52:50;;;;;;;38.17;19.47;;;;;;;1.18;82.32;100818.72;122677;1105;104366;-77
2022/11/20 01:55:26;;;;;;;33.40;17.07;;;;;;;1.21;83.15;100813.79;122730;1105;104757;-78
2022/11/20 01:57:59;;;;;;;38.87;21.27;;;;;;;1.20;83.67;100800.74;122714;1105;104893;-75
2022/11/20 02:00:43;;;;;;;37.57;20.00;;;;;;;1.17;84.73;100803.09;122620;1105;104698;-76
2022/11/20 02:03:18;;;;;;;36.40;18.00;;;;;;;1.16;85.54;100803.89;122694;1105;104300;-78
2022/11/20 02:05:53;;;;;;;35.77;18.60;;;;;;;1.11;85.25;100800.03;122636;1105;104392;-79
2022/11/20 02:08:25;;;;;;;34.00;17.60;;;;;;;1.08;83.76;100811.94;122622;1104;104309;-78
2022/11/20 02:10:56;;;;;;;36.03;18.30;;;;;;;1.06;84.94;100808.34;122753;1105;104440;-78
2022/11/20 02:13:44;;;;;;;35.40;19.83;;;;;;;1.04;83.69;100802.16;122592;1105;104383;-78
2022/11/20 02:16:23;;;;;;;32.13;17.13;;;;;;;1.03;84.80;100787.42;122614;1105;104284;-78
2022/11/20 02:18:57;;;;;;;34.47;18.63;;;;;;;1.00;85.50;100775.95;122676;1105;104342;-78
2022/11/20 02:21:38;;;;;;;34.08;17.62;;;;;;;0.97;85.17;100763.69;122601;1105;104242;-78
2022/11/20 02:24:13;;;;;;;32.50;17.60;;;;;;;0.98;84.25;100768.09;122626;1105;104402;-78
2022/11/20 02:26:51;;;;;;;36.77;18.23;;;;;;;0.98;85.13;100757.75;122614;1105;104424;-78
2022/11/20 02:29:29;;;;;;;36.33;18.83;;;;;;;0.97;85.34;100745.60;122661;1105;104380;-77
2022/11/20 02:32:02;;;;;;;32.03;16.60;;;;;;;0.98;85.42;100734.49;122598;1105;105616;-76
2022/11/20 02:34:33;;;;;;;35.77;18.47;;;;;;;1.00;84.37;100740.67;122452;1105;104438;-76
2022/11/20 02:37:04;;;;;;;31.93;16.90;;;;;;;0.98;85.45;100750.00;122641;1105;104395;-77
2022/11/20 02:39:35;;;;;;;33.60;17.00;;;;;;;0.97;84.85;100739.55;122581;1105;104719;-77
2022/11/20 02:42:07;;;;;;;34.13;17.13;;;;;;;0.96;84.93;100736.03;122624;1105;104348;-77
2022/11/20 02:44:38;;;;;;;36.35;16.95;;;;;;;0.95;86.79;100718.75;122591;1105;104878;-77
2022/11/20 02:47:09;;;;;;;32.93;16.97;;;;;;;0.91;87.35;100710.64;122630;1105;104703;-77
2022/11/20 02:49:40;;;;;;;32.60;15.53;;;;;;;0.87;88.97;100701.73;122627;1105;104893;-76
2022/11/20 02:52:11;;;;;;;30.30;15.70;;;;;;;0.83;87.17;100690.27;122655;1105;104384;-76
2022/11/20 02:54:43;;;;;;;34.23;16.53;;;;;;;0.81;87.31;100690.92;122681;1105;104258;-76
2022/11/20 02:57:14;;;;;;;32.47;17.07;;;;;;;0.79;86.82;100707.99;122693;1105;104290;-76
2022/11/20 02:59:45;;;;;;;32.03;15.60;;;;;;;0.81;88.41;100709.00;122700;1105;104344;-76
2022/11/20 03:02:16;;;;;;;31.30;15.23;;;;;;;0.78;88.47;100688.09;122659;1105;104293;-77
2022/11/20 03:04:47;;;;;;;33.00;17.07;;;;;;;0.76;87.94;100680.23;122493;1104;104289;-76
2022/11/20 03:07:18;;;;;;;34.07;16.87;;;;;;;0.75;88.88;100675.87;122624;1105;104261;-76
2022/11/20 03:09:49;;;;;;;32.23;16.73;;;;;;;0.76;87.74;100669.00;122647;1104;104363;-76
2022/11/20 03:12:21;;;;;;;34.75;17.90;;;;;;;0.77;89.21;100665.66;122649;1105;105456;-76
2022/11/20 03:14:52;;;;;;;33.83;17.43;;;;;;;0.75;88.90;100650.03;122698;1105;104772;-76
2022/11/20 03:17:23;;;;;;;35.13;17.53;;;;;;;0.76;87.69;100661.26;122543;1105;104261;-76
2022/11/20 03:19:54;;;;;;;35.80;17.40;;;;;;;0.79;87.08;100682.16;122608;1105;104411;-77
2022/11/20 03:22:25;;;;;;;33.77;17.60;;;;;;;0.79;88.11;100687.33;122613;1105;104335;-77
2022/11/20 03:24:56;;;;;;;29.80;15.17;;;;;;;0.80;88.51;100691.72;122649;1105;104274;-77
2022/11/20 03:27:27;;;;;;;37.63;18.47;;;;;;;0.78;87.72;100672.59;122605;1105;104412;-76
2022/11/20 03:29:59;;;;;;;31.30;16.00;;;;;;;0.79;89.60;100682.16;122590;1105;104265;-76
2022/11/20 03:32:30;;;;;;;33.63;17.53;;;;;;;0.80;87.47;100690.03;122635;1105;104290;-76
2022/11/20 03:35:01;;;;;;;33.00;16.50;;;;;;;0.80;89.04;100674.53;122597;1105;104319;-76
2022/11/20 03:37:32;;;;;;;32.67;16.93;;;;;;;0.82;88.02;100669.48;122613;1105;104290;-75
2022/11/20 03:40:06;;;;;;;32.63;16.47;;;;;;;0.84;88.57;100674.00;122610;1105;104371;-76
2022/11/20 03:42:47;;;;;;;31.33;15.93;;;;;;;0.85;87.62;100693.86;122599;1105;104309;-77
2022/11/20 03:45:19;;;;;;;33.00;15.90;;;;;;;0.84;88.40;100685.98;122622;1105;104289;-76
2022/11/20 03:47:51;;;;;;;29.13;14.87;;;;;;;0.83;87.94;100666.12;122661;1105;104258;-76
2022/11/20 03:50:22;;;;;;;32.20;16.20;;;;;;;0.83;88.77;100633.43;122610;1105;104367;-77
2022/11/20 03:52:53;;;;;;;32.63;16.37;;;;;;;0.81;88.25;100645.34;122574;1106;104258;-76
2022/11/20 03:55:24;;;;;;;29.43;14.23;;;;;;;0.77;89.91;100655.31;122595;1105;104312;-76
2022/11/20 03:57:56;;;;;;;33.93;17.10;;;;;;;0.75;88.71;100643.95;122640;1105;104290;-77
2022/11/20 04:00:42;;;;;;;30.63;15.37;;;;;;;0.75;89.00;100650.03;122574;1105;104334;-77
2022/11/20 04:03:13;;;;;;;32.67;17.20;;;;;;;0.74;89.26;100663.72;122642;1105;104271;-77
2022/11/20 04:05:44;;;;;;;32.43;16.67;;;;;;;0.71;89.17;100668.65;122732;1105;104360;-77
2022/11/20 04:08:16;;;;;;;32.20;16.67;;;;;;;0.68;90.37;100651.22;122679;1105;104376;-77
2022/11/20 04:10:47;;;;;;;34.07;17.23;;;;;;;0.68;89.81;100640.89;122667;1105;104270;-77
2022/11/20 04:13:18;;;;;;;31.77;16.70;;;;;;;0.70;90.31;100617.77;122696;1105;104342;-77
2022/11/20 04:15:49;;;;;;;34.80;17.47;;;;;;;0.74;90.41;100624.09;122724;1105;104409;-77
2022/11/20 04:18:20;;;;;;;32.53;16.43;;;;;;;0.74;89.98;100609.48;122769;1105;104456;-77
2022/11/20 04:20:51;;;;;;;33.33;17.30;;;;;;;0.77;89.62;100601.08;122616;1105;104380;-78
2022/11/20 04:23:25;;;;;;;30.63;13.60;;;;;;;0.78;91.58;100610.60;122681;1105;104257;-76
2022/11/20 04:26:01;;;;;;;31.83;17.37;;;;;;;0.76;90.35;100604.43;122665;1105;104648;-76
2022/11/20 04:28:32;;;;;;;32.40;16.53;;;;;;;0.74;90.34;100601.73;122664;1105;104256;-76
2022/11/20 04:31:11;;;;;;;34.27;16.80;;;;;;;0.71;92.40;100592.05;122690;1105;104505;-77
2022/11/20 04:33:43;;;;;;;32.75;17.00;;;;;;;0.70;90.49;100576.44;122568;1106;104348;-77
2022/11/20 04:36:16;;;;;;;31.63;16.07;;;;;;;0.72;90.17;100580.06;122663;1105;104306;-77
2022/11/20 04:38:51;;;;;;;32.38;17.27;;;;;;;0.71;90.75;100575.66;122655;1104;104291;-77
2022/11/20 04:41:25;;;;;;;35.70;17.03;;;;;;;0.71;90.96;100576.55;122686;1105;104345;-76
2022/11/20 04:43:59;;;;;;;31.68;16.57;;;;;;;0.75;90.70;100579.37;122624;1105;104287;-76
2022/11/20 04:46:31;;;;;;;32.50;17.73;;;;;;;0.77;90.35;100575.23;122694;1105;104361;-76
2022/11/20 04:49:02;;;;;;;32.07;16.40;;;;;;;0.75;90.38;100582.87;122721;1105;104267;-76
2022/11/20 04:51:34;;;;;;;31.17;16.20;;;;;;;0.76;91.46;100568.27;122617;1105;104364;-76
2022/11/20 04:54:05;;;;;;;32.10;16.00;;;;;;;0.74;91.15;100569.84;122648;1105;104235;-76
2022/11/20 04:56:37;;;;;;;33.20;17.23;;;;;;;0.73;90.26;100565.45;122695;1105;104309;-75
2022/11/20 04:59:08;;;;;;;31.83;16.50;;;;;;;0.75;89.91;100561.28;122625;1105;104373;-77
2022/11/20 05:01:39;;;;;;;32.10;17.07;;;;;;;0.80;89.51;100567.73;122655;1105;104294;-76
2022/11/20 05:04:10;;;;;;;30.03;15.03;;;;;;;0.83;90.60;100570.54;122585;1105;104425;-76
2022/11/20 05:06:42;;;;;;;30.83;15.90;;;;;;;0.81;89.85;100549.76;122640;1105;104636;-76
2022/11/20 05:09:14;;;;;;;30.30;15.90;;;;;;;0.83;89.94;100536.95;122651;1105;104363;-76
2022/11/20 05:11:45;;;;;;;30.03;14.33;;;;;;;0.85;91.48;100535.37;122619;1105;104368;-76
2022/11/20 05:14:16;;;;;;;29.40;14.93;;;;;;;0.84;89.68;100533.56;122656;1105;104354;-75
2022/11/20 05:16:47;;;;;;;29.70;16.07;;;;;;;0.85;90.25;100525.93;122658;1105;104712;-77
2022/11/20 05:19:18;;;;;;;28.50;14.10;;;;;;;0.86;91.03;100525.16;122709;1105;104303;-76
2022/11/20 05:21:49;;;;;;;29.65;14.80;;;;;;;0.87;90.21;100520.88;122677;1105;104818;-75
2022/11/20 05:24:20;;;;;;;26.90;12.60;;;;;;;0.88;91.80;100517.52;122608;1105;104284;-76
2022/11/20 05:26:54;;;;;;;27.73;13.20;;;;;;;0.86;92.95;100498.44;122658;1105;104380;-77
2022/11/20 05:29:25;;;;;;;25.95;13.05;;;;;;;0.83;91.39;100488.76;122710;1105;104345;-76
2022/11/20 05:31:56;;;;;;;27.10;13.47;;;;;;;0.85;90.83;100502.68;122712;1105;104364;-75
2022/11/20 05:34:28;;;;;;;28.17;14.03;;;;;;;0.85;91.13;100502.68;122637;1105;104402;-75
2022/11/20 05:36:59;;;;;;;29.70;15.00;;;;;;;0.86;90.79;100488.98;122617;1105;104242;-76
2022/11/20 05:39:32;;;;;;;29.70;15.20;;;;;;;0.86;90.29;100478.66;122647;1105;104363;-77
2022/11/20 05:44:52;;;;;;;29.10;14.33;;;;;;;0.87;91.40;100482.13;122619;1105;104271;-76
2022/11/20 05:47:23;;;;;;;28.63;14.07;;;;;;;0.87;91.03;100488.22;122691;1105;104427;-76
2022/11/20 05:49:54;;;;;;;29.90;14.13;;;;;;;0.88;90.95;100491.69;122670;1105;104408;-76
2022/11/20 05:52:25;;;;;;;25.33;13.10;;;;;;;0.90;91.79;100487.52;122650;1105;104364;-76
2022/11/20 05:54:57;;;;;;;27.07;13.80;;;;;;;0.89;91.54;100498.66;122647;1105;104351;-77
2022/11/20 05:57:28;;;;;;;29.63;13.57;;;;;;;0.88;90.98;100497.74;122654;1105;104270;-76
2022/11/20 05:59:59;;;;;;;29.45;15.45;;;;;;;0.91;90.93;100484.16;122658;1105;104810;-76
2022/11/20 06:02:30;;;;;;;29.70;15.10;;;;;;;0.96;90.35;100479.33;122588;1105;104271;-76
2022/11/20 06:05:01;;;;;;;26.53;12.33;;;;;;;0.98;91.24;100462.25;122648;1105;104370;-76
2022/11/20 06:07:32;;;;;;;26.43;13.70;;;;;;;0.98;90.70;100470.92;122626;1105;104366;-75
2022/11/20 06:10:04;;;;;;;27.63;14.00;;;;;;;0.99;90.15;100462.36;122670;1105;104742;-75
2022/11/20 06:12:35;;;;;;;26.47;13.77;;;;;;;1.01;91.24;100454.72;122767;1105;104351;-76
2022/11/20 06:15:08;;;;;;;26.15;12.70;;;;;;;0.98;92.73;100460.59;122898;1105;104341;-76
2022/11/20 06:17:39;;;;;;;25.67;13.03;;;;;;;0.97;90.90;100482.03;122911;1105;104344;-75
2022/11/20 06:20:12;;;;;;;25.20;13.70;;;;;;;0.98;91.32;100491.59;122833;1105;104287;-75
2022/11/20 06:22:43;;;;;;;27.25;13.65;;;;;;;1.00;91.24;100491.70;122899;1105;104293;-75
2022/11/20 06:25:14;;;;;;;26.67;13.50;;;;;;;1.00;90.93;100497.77;122667;1105;104434;-75
2022/11/20 06:27:46;;;;;;;26.63;13.90;;;;;;;1.02;90.83;100501.34;122648;1105;104319;-76
2022/11/20 06:30:17;;;;;;;27.13;13.73;;;;;;;1.04;90.51;100501.45;122638;1105;104321;-75
2022/11/20 06:32:49;;;;;;;29.35;15.10;;;;;;;1.05;90.76;100504.16;122670;1105;104326;-76
2022/11/20 06:35:20;;;;;;;27.00;13.73;;;;;;;1.03;90.88;100500.57;122718;1105;104259;-77
2022/11/20 06:37:51;;;;;;;25.03;13.33;;;;;;;1.03;91.21;100486.77;122668;1105;104389;-77
2022/11/20 06:40:22;;;;;;;25.30;12.30;;;;;;;1.03;92.14;100479.90;122651;1105;104280;-77
2022/11/20 06:42:54;;;;;;;26.17;12.27;;;;;;;1.02;91.58;100472.92;122705;1105;104380;-76
2022/11/20 06:45:25;;;;;;;28.15;14.05;;;;;;;1.02;90.98;100470.34;122642;1105;104371;-76
2022/11/20 06:47:57;;;;;;;25.80;13.80;;;;;;;1.05;91.18;100465.39;122689;1105;104517;-76
2022/11/20 06:50:29;;;;;;;25.00;13.23;;;;;;;1.10;91.13;100447.64;122675;1105;104312;-76
2022/11/20 06:53:06;;;;;;;25.15;11.10;;;;;;;1.12;92.01;100439.99;122694;1105;104319;-77
2022/11/20 06:55:37;;;;;;;23.27;11.20;;;;;;;1.11;91.59;100433.02;122716;1105;104376;-77
2022/11/20 06:58:08;;;;;;;22.70;11.10;;;;;;;1.12;91.61;100433.13;122679;1105;104309;-76
2022/11/20 07:00:40;;;;;;;22.20;11.40;;;;;;;1.13;91.50;100431.47;122674;1105;104319;-76
2022/11/20 07:03:13;;;;;;;21.10;10.90;;;;;;;1.16;91.15;100431.69;122712;1105;104664;-75
2022/11/20 07:05:44;;;;;;;23.30;11.07;;;;;;;1.17;91.23;100412.78;122769;1105;104312;-76
2022/11/20 07:08:16;;;;;;;23.67;12.17;;;;;;;1.20;91.18;100413.00;122707;1105;104366;-75
2022/11/20 07:10:47;;;;;;;23.70;11.27;;;;;;;1.24;91.56;100402.99;122622;1105;104303;-76
2022/11/20 07:13:18;;;;;;;23.40;11.50;;;;;;;1.29;91.18;100407.61;122684;1105;104245;-76
2022/11/20 07:15:49;;;;;;;24.90;12.63;;;;;;;1.30;90.92;100412.00;122650;1105;104264;-76
2022/11/20 07:18:20;;;;;;;22.50;11.40;;;;;;;1.31;90.59;100412.11;122634;1105;108335;-76
2022/11/20 07:20:52;;;;;;;22.30;11.47;;;;;;;1.32;91.27;100416.47;122672;1105;104348;-76
2022/11/20 07:23:23;;;;;;;22.70;11.53;;;;;;;1.35;91.33;100388.25;122682;1105;104341;-76
2022/11/20 07:25:54;;;;;;;22.90;11.20;;;;;;;1.38;91.61;100383.29;122740;1105;104293;-76
2022/11/20 07:28:25;;;;;;;23.03;11.43;;;;;;;1.42;91.60;100380.14;122691;1105;104389;-77
2022/11/20 07:30:56;;;;;;;23.17;11.47;;;;;;;1.46;91.06;100377.77;122738;1105;104820;-76
2022/11/20 07:33:27;;;;;;;22.53;12.00;;;;;;;1.48;91.37;100371.01;122735;1105;104373;-76
2022/11/20 07:36:01;;;;;;;21.07;10.67;;;;;;;1.51;91.68;100369.55;122652;1105;104299;-77
2022/11/20 07:38:32;;;;;;;23.45;10.85;;;;;;;1.53;92.29;100377.42;122695;1105;104278;-77
2022/11/20 07:41:03;;;;;;;23.40;11.23;;;;;;;1.54;92.00;100379.20;122727;1105;104277;-76
2022/11/20 07:43:34;;;;;;;25.00;11.60;;;;;;;1.55;92.45;100388.77;122613;1105;104374;-76
2022/11/20 07:46:05;;;;;;;22.70;10.70;;;;;;;1.57;91.58;100381.99;122683;1105;104290;-77
2022/11/20 07:48:36;;;;;;;23.30;11.83;;;;;;;1.60;91.54;100358.93;122745;1105;104765;-77
2022/11/20 07:51:08;;;;;;;22.93;11.47;;;;;;;1.66;91.48;100343.83;122728;1105;104344;-77
2022/11/20 07:53:39;;;;;;;20.27;10.00;;;;;;;1.70;92.27;100348.44;122546;1105;104271;-77
2022/11/20 07:56:11;;;;;;;21.63;10.77;;;;;;;1.71;92.17;100341.56;122648;1105;104395;-77
2022/11/20 07:58:42;;;;;;;22.77;10.90;;;;;;;1.74;91.23;100332.31;122674;1105;104258;-77
2022/11/20 08:01:13;;;;;;;20.53;9.90;;;;;;;1.77;92.36;100326.45;122792;1105;104200;-77
2022/11/20 08:03:44;;;;;;;20.60;10.05;;;;;;;1.77;92.02;100327.34;122731;1105;104306;-77
2022/11/20 08:06:15;;;;;;;19.53;9.77;;;;;;;1.78;92.35;100317.91;122713;1105;104216;-77
2022/11/20 08:08:46;;;;;;;17.53;8.87;;;;;;;1.80;92.42;100324.08;122664;1105;104261;-77
2022/11/20 08:14:12;;;;;;;21.27;10.50;;;;;;;1.80;92.76;100317.20;122659;1105;104235;-78
2022/11/20 08:16:45;;;;;;;19.83;10.10;;;;;;;1.80;93.27;100318.91;122745;1105;104261;-78
2022/11/20 08:19:18;;;;;;;21.80;12.37;;;;;;;1.80;92.18;100311.14;122774;1105;104342;-77
2022/11/20 08:21:49;;;;;;;23.20;12.07;;;;;;;1.82;91.54;100313.84;122779;1105;104258;-77
2022/11/20 08:24:20;;;;;;;24.13;13.07;;;;;;;1.83;91.78;100316.53;122775;1105;104409;-77
2022/11/20 08:26:51;;;;;;;25.37;12.63;;;;;;;1.85;92.08;100311.45;122709;1105;104393;-78
2022/11/20 08:29:22;;;;;;;21.90;12.20;;;;;;;1.86;91.93;100313.27;122526;1105;104348;-77
2022/11/20 08:31:54;;;;;;;24.37;13.10;;;;;;;1.85;91.95;100314.92;122799;1105;104386;-77
2022/11/20 08:34:41;;;;;;;25.03;13.90;;;;;;;1.87;91.67;100317.63;122833;1105;104246;-78
2022/11/20 08:37:12;;;;;;;24.70;12.70;;;;;;;1.88;91.20;100315.14;122812;1105;104722;-77
2022/11/20 08:39:43;;;;;;;24.50;13.43;;;;;;;1.90;91.36;100313.57;122714;1105;104708;-76
2022/11/20 08:42:14;;;;;;;25.00;13.40;;;;;;;1.89;91.96;100301.41;122675;1105;104373;-78
2022/11/20 08:44:45;;;;;;;26.40;14.65;;;;;;;1.88;91.74;100296.14;122802;1105;104360;-79
2022/11/20 08:47:17;;;;;;;23.77;12.87;;;;;;;1.89;92.83;100279.83;122688;1105;104375;-77
2022/11/20 08:49:48;;;;;;;26.53;14.23;;;;;;;1.89;92.21;100272.95;122717;1106;104374;-78
2022/11/20 08:52:19;;;;;;;26.87;14.53;;;;;;;1.91;92.35;100262.70;122683;1105;104301;-78
2022/11/20 08:54:50;;;;;;;26.37;14.20;;;;;;;1.94;91.95;100248.27;122722;1105;104261;-78
2022/11/20 08:57:21;;;;;;;24.40;11.95;;;;;;;1.96;91.90;100235.42;122692;1105;104450;-78
2022/11/20 08:59:52;;;;;;;24.27;12.83;;;;;;;1.96;92.14;100231.17;122616;1105;104328;-77
2022/11/20 09:02:23;;;;;;;24.37;11.93;;;;;;;1.97;91.76;100213.94;122674;1105;104309;-78
2022/11/20 09:04:54;;;;;;;23.30;11.45;;;;;;;1.99;91.78;100199.39;122665;1105;104737;-77
2022/11/20 09:07:26;;;;;;;19.43;9.93;;;;;;;2.01;92.18;100178.80;122703;1105;104363;-77
2022/11/20 09:09:57;;;;;;;25.57;12.30;;;;;;;2.02;92.12;100160.78;122766;1105;104358;-78
2022/11/20 09:12:28;;;;;;;21.90;11.70;;;;;;;2.02;92.11;100158.19;122735;1105;104406;-77
2022/11/20 09:14:59;;;;;;;22.67;11.80;;;;;;;2.04;91.47;100161.80;122790;1105;104713;-77
2022/11/20 09:17:30;;;;;;;24.05;12.95;;;;;;;2.05;91.98;100153.20;122660;1105;104289;-78
2022/11/20 09:20:01;;;;;;;22.53;11.77;;;;;;;2.07;91.36;100150.72;122811;1105;104294;-77
2022/11/20 09:22:32;;;;;;;22.80;12.30;;;;;;;2.06;92.50;100162.78;122768;1105;104405;-78
2022/11/20 09:25:04;;;;;;;22.40;11.17;;;;;;;2.06;91.77;100170.54;122675;1105;104750;-78
2022/11/20 09:27:35;;;;;;;21.23;10.50;;;;;;;2.01;92.55;100174.53;122779;1105;104288;-78
2022/11/20 09:30:08;;;;;;;22.47;12.30;;;;;;;1.96;91.92;100189.77;122719;1105;104258;-78
2022/11/20 09:32:41;;;;;;;22.13;11.97;;;;;;;1.96;91.94;100200.12;122806;1105;104370;-78
2022/11/20 09:35:14;;;;;;;25.50;13.43;;;;;;;1.96;92.67;100201.78;122669;1105;104241;-78
2022/11/20 09:37:45;;;;;;;24.70;12.85;;;;;;;1.96;92.82;100200.12;122734;1105;104333;-78
2022/11/20 09:40:23;;;;;;;25.00;12.27;;;;;;;1.96;92.08;100187.17;122579;1105;104440;-78
2022/11/20 09:43:00;;;;;;;23.70;12.20;;;;;;;1.94;92.53;100191.33;122773;1105;104316;-78
2022/11/20 09:45:48;;;;;;;22.63;11.70;;;;;;;1.93;92.03;100204.17;122675;1105;104731;-78
2022/11/20 09:48:34;;;;;;;22.30;11.33;;;;;;;1.93;92.68;100248.16;122759;1105;104258;-78
2022/11/20 09:51:14;;;;;;;24.17;11.97;;;;;;;1.89;92.84;100259.12;122730;1104;104293;-78
2022/11/20 09:53:53;;;;;;;23.70;11.17;;;;;;;1.87;92.35;100260.70;122695;1105;104322;-78
2022/11/20 09:56:26;;;;;;;23.17;11.10;;;;;;;1.86;92.42;100271.86;122729;1105;104319;-78
2022/11/20 09:59:03;;;;;;;22.23;11.00;;;;;;;1.83;92.50;100259.61;122769;1105;104325;-77
2022/11/20 10:01:40;;;;;;;21.50;10.35;;;;;;;1.82;93.14;100243.98;122750;1105;118850;-78
2022/11/20 10:04:17;;;;;;;22.00;11.00;;;;;;;1.81;92.55;100243.09;122771;1105;104389;-77
2022/11/20 10:06:57;;;;;;;23.37;11.90;;;;;;;1.83;92.03;100258.72;122616;1105;104425;-78
2022/11/20 10:09:33;;;;;;;22.80;11.00;;;;;;;1.84;92.22;100269.17;122705;1105;104402;-77
2022/11/20 10:12:20;;;;;;;22.37;11.43;;;;;;;1.83;92.28;100258.72;122856;1105;104409;-78
2022/11/20 10:15:02;;;;;;;24.50;12.27;;;;;;;1.81;92.59;100248.27;122707;1105;104380;-78
2022/11/20 10:18:02;;;;;;;22.20;11.40;;;;;;;1.78;92.31;100225.66;122851;1105;104389;-78
2022/11/20 10:20:45;;;;;;;26.70;12.57;;;;;;;1.81;92.29;100232.75;122984;1105;104267;-78
2022/11/20 10:23:34;;;;;;;24.40;12.07;;;;;;;1.84;92.89;100237.20;122969;1105;104370;-79
2022/11/20 10:26:17;;;;;;;25.87;12.90;;;;;;;1.85;92.51;100231.25;122936;1105;104261;-78
2022/11/20 10:29:08;;;;;;;25.30;13.07;;;;;;;1.82;92.95;100221.58;123004;1105;104329;-78
2022/11/20 10:31:41;;;;;;;26.50;13.70;;;;;;;1.79;93.44;100204.19;122969;1105;104328;-79
2022/11/20 10:34:22;;;;;;;25.80;13.37;;;;;;;1.76;92.88;100196.22;122956;1105;104261;-78
2022/11/20 10:36:59;;;;;;;28.63;13.20;;;;;;;1.76;92.50;100198.81;122925;1105;104415;-79
2022/11/20 10:39:40;;;;;;;28.60;14.63;;;;;;;1.74;93.34;100194.31;122976;1105;104290;-78
2022/11/20 10:42:17;;;;;;;28.50;15.57;;;;;;;1.74;93.30;100186.55;122913;1105;104290;-79
2022/11/20 10:45:03;;;;;;;28.20;14.40;;;;;;;1.73;93.20;100185.67;122872;1105;104364;-79
2022/11/20 10:47:38;;;;;;;28.73;13.83;;;;;;;1.73;94.74;100188.26;122966;1105;104347;-78
2022/11/20 10:50:16;;;;;;;26.40;13.97;;;;;;;1.71;94.81;100187.23;122997;1106;104256;-78
2022/11/20 10:52:58;;;;;;;27.27;13.63;;;;;;;1.71;94.19;100183.77;122833;1105;104393;-79
2022/11/20 10:55:40;;;;;;;26.20;13.80;;;;;;;1.71;94.83;100205.34;122993;1105;104438;-78
2022/11/20 10:58:20;;;;;;;25.63;13.30;;;;;;;1.71;94.52;100213.11;123011;1105;104728;-78
2022/11/20 11:00:51;;;;;;;27.17;13.60;;;;;;;1.70;95.75;100213.00;123079;1105;104319;-79
2022/11/20 11:03:29;;;;;;;25.35;13.45;;;;;;;1.68;94.81;100199.09;122803;1105;104303;-79
2022/11/20 11:06:05;;;;;;;29.57;14.67;;;;;;;1.67;94.65;100208.55;122955;1105;104286;-78
2022/11/20 11:08:40;;;;;;;28.67;14.53;;;;;;;1.69;94.37;100225.05;122970;1105;104299;-78
2022/11/20 11:11:22;;;;;;;27.90;13.90;;;;;;;1.69;93.57;100225.05;122933;1104;104383;-78
2022/11/20 11:13:53;;;;;;;25.90;13.20;;;;;;;1.67;93.88;100208.55;122994;1105;104339;-78
2022/11/20 11:16:27;;;;;;;24.93;13.03;;;;;;;1.67;93.76;100205.95;122911;1105;104239;-77
2022/11/20 11:19:13;;;;;;;27.80;14.10;;;;;;;1.70;93.62;100216.51;122902;1105;104210;-78
2022/11/20 11:21:50;;;;;;;26.70;12.95;;;;;;;1.72;94.24;100195.92;122955;1105;104366;-78
2022/11/20 11:24:24;;;;;;;24.07;11.83;;;;;;;1.73;94.08;100185.67;123018;1106;104322;-79
2022/11/20 11:27:04;;;;;;;26.87;12.87;;;;;;;1.77;94.14;100173.83;122962;1105;104334;-78
2022/11/20 11:29:35;;;;;;;28.97;13.53;;;;;;;1.80;94.19;100151.63;123076;1105;104239;-78
2022/11/20 11:32:09;;;;;;;28.35;13.70;;;;;;;1.86;94.60;100142.49;122940;1105;104393;-79
2022/11/20 11:34:40;;;;;;;26.27;12.28;;;;;;;1.91;95.79;100115.20;122875;1105;104364;-79
2022/11/20 11:37:19;;;;;;;25.90;13.43;;;;;;;1.93;94.13;100139.48;122859;1105;104334;-78